• Join FlightAware (Why Join?)
  • Login
  • US Flag 
09:15AM EDT


 

Airport Tracker/Info


-or-


 

Live Flight TrackerFlight Track Log ✈ N4553B ✈ 28-Sep-2013 ✈ KFKL - KCGF

Flight Track Log - Related Links

Times and Time Zones

All times are in EDT time to prevent confusion due to time zone crossing. See the N4553B flight status page for this flight to view local times or setup timezone preferences in your user account.

Time Position Orientation Groundspeed Altitude Reporting Facility
EDT Latitude Longitude Course Direction KTS MPH feet Rate Location/Type
04:18PM 41.3731 -79.9375 278° West 113 130 3,700  Level Cleveland Center
04:19PM 41.3817 -79.9817 285° West 120 138 3,900 60 Climbing Cleveland Center
04:20PM 41.3881 -80.0325 280° West 137 158 3,900  Level Cleveland Center
04:21PM 41.3847 -80.0831 265° West 139 160 3,900  Level Cleveland Center
04:22PM 41.4070 -80.1371 278° West  Level FlightAware Approximate
04:22PM 41.3914 -80.1439 278° West 140 161 3,900  Level Cleveland Center
04:23PM 41.4119 -80.1832 278° West  Level FlightAware Approximate
04:23PM 41.4044 -80.1936 289° West 142 163 3,900  Level Cleveland Center
04:24PM 41.4075 -80.2442 275° West 140 161 3,900  Level Cleveland Center
04:25PM 41.4125 -80.2917 278° West 136 157 3,900  Level Cleveland Center
04:26PM 41.4242 -80.3397 288° West 137 158 3,900  Level Cleveland Center
04:27PM 41.4281 -80.3969 275° West 135 155 4,000  Climbing Cleveland Center
04:28PM 41.4314 -80.4467 275° West 133 153 4,000  Level Cleveland Center
04:29PM 41.4406 -80.4961 284° West 136 157 4,000 -60 Level Cleveland Center
04:30PM 41.4456 -80.5472 277° West 137 158 3,900 -60 Descending Cleveland Center
04:31PM 41.4517 -80.5964 279° West 134 154 3,900  Level Cleveland Center
04:32PM 41.4558 -80.6453 277° West 132 152 4,000  Climbing Cleveland Center
04:33PM 41.4644 -80.6936 283° West 136 157 4,000  Level Cleveland Center
04:34PM 41.4681 -80.7450 275° West 135 155 4,000  Level Cleveland Center
04:35PM 41.4739 -80.7867 281° West 136 157 4,000  Level Cleveland Center
04:35PM 41.4758 -80.7958 286° West 137 158 4,000 -360 Level Cleveland Center
04:35PM 41.4767 -80.8039 278° West 137 158 3,900  Descending Cleveland Center
04:36PM 41.4831 -80.8547 280° West 137 158 4,000 60 Climbing Cleveland Center
04:36PM 41.4831 -80.8550 270° West 136 157 4,000  Level Cleveland Center
04:37PM 41.4875 -80.9042 277° West 134 154 4,000  Level Cleveland Center
04:38PM 41.4917 -80.9528 277° West 133 153 4,000  Level Cleveland Center
04:39PM 41.4975 -81.0050 278° West 138 159 4,000  Level Cleveland Center
04:39PM 41.4972 -81.0047 143° Southeast 135 155 4,000  Level Cleveland Center
04:40PM 41.5039 -81.0561 280° West 138 159 4,000  Level Cleveland Center
04:40PM 41.5033 -81.0547 118° Southeast 137 158 4,000  Level Cleveland Center
04:41PM 41.5100 -81.1044 280° West 136 157 4,000  Level Cleveland Center
04:41PM 41.5092 -81.1053 217° Southwest 137 158 4,000 -540 Level Cleveland Center
04:42PM 41.5164 -81.1528 281° West 135 155 3,500 -540 Descending Cleveland Center
04:42PM 41.5150 -81.1547 226° Southwest 135 155 3,500 -480 Level Cleveland Center
04:43PM 41.5294 -81.1992 293° West 139 160 3,000 -240 Descending Cleveland Center
04:44PM 41.5439 -81.2464 292° West 125 144 3,100  Climbing Cleveland Center
04:44PM 41.5433 -81.2500 258° West 131 151 3,000  Descending Cleveland Center
04:45PM 41.5592 -81.2881 299° West 130 150 3,100  Climbing Cleveland Center
04:45PM 41.5592 -81.2919 270° West 127 146 3,000 -120 Descending Cleveland Center
04:46PM 41.5742 -81.3322 296° West 130 150 3,000  Level Cleveland Center
04:46PM 41.5747 -81.3353 284° West 127 146 3,000  Level Cleveland Center
04:47PM 41.5831 -81.3756 285° West 122 140 3,000  Level Cleveland Center
04:48PM 41.5844 -81.3794 296° West 126 145 3,000 -420 Level Cleveland Center
04:48PM 41.6150 -81.3719 10° North 131 151 2,600 -420 Descending Cleveland Center
04:49PM 41.6142 -81.3681 106° East 128 147 2,600 -120 Level Cleveland Center
04:49PM 41.6372 -81.3561 21° North 110 127 2,500 -120 Descending Cleveland Center
04:50PM 41.6372 -81.3586 270° West 131 151 2,500 -240 Level Cleveland Center
04:50PM 41.6300 -81.3911 253° West 102 117 2,300 -300 Descending Cleveland Center
04:51PM 41.6264 -81.3914 183° South 109 125 2,200 -240 Descending Cleveland Center
04:51PM 41.6108 -81.4189 233° Southwest 101 116 2,100 -120 Descending Cleveland Center
04:52PM 41.6069 -81.4194 186° South 105 121 2,100 -540 Level Cleveland Center
04:52PM 41.5942 -81.4414 232° Southwest 85 98 1,600 -540 Descending Cleveland Center
04:53PM 41.5922 -81.4433 217° Southwest 92 106 1,600 -540 Level Cleveland Center
04:53PM 41.5772 -81.4667 229° Southwest 89 102 1,100 -540 Descending Cleveland Center
04:54PM 41.5756 -81.4678 207° Southwest 89 102 1,100  Level Cleveland Center
04:56PM 41.5651 -81.4864 225° Southwest  Level Estimated